Time;durP1;ratioP1;P1;durP2;ratioP2;P2;SDS_P1;SDS_P2;PMS_P1;PMS_P2;Temp;Humidity;BMP_temperature;BMP_pressure;BME280_temperature;BME280_humidity;BME280_pressure;Samples;Min_cycle;Max_cycle;Signal;HPM_P1;HPM_P2
2022/05/03 00:00:37;;;;;;;11.40;6.07;;;16.90;36.50;;;;;;5093885;28;20168;-33
2022/05/03 00:03:13;;;;;;;8.93;7.18;;;16.80;36.60;;;;;;5094093;28;20173;-33
2022/05/03 00:05:55;;;;;;;7.93;6.20;;;16.80;36.30;;;;;;5093973;28;20690;-33
2022/05/03 00:08:28;;;;;;;9.43;5.85;;;16.70;36.10;;;;;;5094161;28;20546;-33
2022/05/03 00:11:00;;;;;;;9.68;6.95;;;16.70;36.20;;;;;;5093761;28;20198;-33
2022/05/03 00:13:34;;;;;;;7.18;6.03;;;16.60;35.90;;;;;;5092660;28;20164;-33
2022/05/03 00:16:00;;;;;;;11.10;5.72;;;16.60;36.40;;;;;;5094171;28;20270;-33
2022/05/03 00:18:25;;;;;;;9.07;6.10;;;16.50;36.70;;;;;;5093800;28;20251;-33
2022/05/03 00:20:52;;;;;;;7.00;5.53;;;16.40;37.50;;;;;;5093615;28;20402;-33
2022/05/03 00:23:18;;;;;;;7.75;6.25;;;16.40;36.90;;;;;;5093576;28;20217;-33
2022/05/03 00:25:44;;;;;;;9.20;5.60;;;16.30;37.20;;;;;;5093669;28;20211;-33
2022/05/03 00:28:12;;;;;;;5.20;4.65;;;16.20;37.70;;;;;;5093545;28;20409;-33
2022/05/03 00:30:39;;;;;;;8.35;6.22;;;16.20;37.00;;;;;;5093471;28;20539;-33
2022/05/03 00:33:05;;;;;;;7.50;5.63;;;16.10;37.60;;;;;;5093391;28;20160;-33
2022/05/03 00:35:32;;;;;;;9.40;6.50;;;16.10;38.00;;;;;;5093319;28;20196;-33
2022/05/03 00:37:57;;;;;;;7.30;5.38;;;16.00;37.10;;;;;;5093206;28;20213;-33
2022/05/03 00:40:25;;;;;;;8.07;6.47;;;16.00;37.30;;;;;;5100677;28;20225;-33
2022/05/03 00:43:14;;;;;;;13.35;6.60;;;15.90;38.10;;;;;;5102363;28;20639;-33
2022/05/03 00:45:48;;;;;;;7.50;5.72;;;15.80;37.40;;;;;;5093075;28;20816;-33
2022/05/03 00:48:14;;;;;;;11.02;6.70;;;15.80;37.70;;;;;;5093032;28;20168;-33
2022/05/03 00:50:44;;;;;;;13.60;6.50;;;15.80;37.40;;;;;;5092821;28;20527;-33
2022/05/03 00:53:37;;;;;;;8.15;5.82;;;15.80;37.60;;;;;;5093059;28;20706;-33
2022/05/03 00:56:27;;;;;;;8.32;5.65;;;15.70;37.70;;;;;;5092554;28;20179;-33
2022/05/03 00:59:16;;;;;;;8.20;6.03;;;15.60;37.90;;;;;;5092776;28;20164;-31
2022/05/03 01:02:02;;;;;;;8.30;5.97;;;15.60;37.20;;;;;;5092658;28;20172;-32
2022/05/03 01:05:03;;;;;;;6.95;5.00;;;15.60;37.60;;;;;;5092739;28;20824;-32
2022/05/03 01:08:03;;;;;;;8.20;5.72;;;15.50;37.80;;;;;;5092812;28;20253;-33
2022/05/03 01:10:54;;;;;;;7.10;5.85;;;15.40;38.20;;;;;;5092617;28;20170;-31
2022/05/03 01:13:29;;;;;;;8.32;7.30;;;15.40;38.20;;;;;;5092482;28;20174;-33
2022/05/03 01:16:19;;;;;;;8.00;5.90;;;15.30;38.30;;;;;;5092516;28;20210;-33
2022/05/03 01:19:00;;;;;;;8.63;7.03;;;15.30;38.10;;;;;;5092604;28;20252;-33
2022/05/03 01:22:03;;;;;;;11.52;6.43;;;15.20;38.20;;;;;;5092426;28;20172;-33
2022/05/03 01:24:48;;;;;;;6.72;5.32;;;15.20;38.30;;;;;;5092486;28;20198;-33
2022/05/03 01:27:37;;;;;;;8.40;6.65;;;15.10;38.30;;;;;;5092474;28;20167;-33
2022/05/03 01:30:03;;;;;;;6.93;6.20;;;15.00;38.80;;;;;;5092328;28;20171;-31
2022/05/03 01:32:32;;;;;;;8.60;5.85;;;15.10;38.50;;;;;;5092472;28;20515;-31
2022/05/03 01:35:00;;;;;;;9.02;5.85;;;15.00;38.60;;;;;;5092395;28;20215;-31
2022/05/03 01:37:48;;;;;;;10.07;5.90;;;14.90;38.40;;;;;;5092340;28;20674;-31
2022/05/03 01:40:22;;;;;;;11.02;5.97;;;14.90;38.30;;;;;;5092272;28;20171;-31
2022/05/03 01:43:00;;;;;;;6.50;5.55;;;14.80;39.00;;;;;;5092208;28;20174;-31
2022/05/03 01:45:57;;;;;;;5.95;5.28;;;14.80;38.50;;;;;;5092159;28;20548;-31
2022/05/03 01:52:01;;;;;;;7.68;6.18;;;14.80;38.60;;;;;;5092001;28;20186;-31
2022/05/03 01:54:57;;;;;;;8.15;5.78;;;14.70;38.60;;;;;;5072223;28;20206;-31
2022/05/03 01:57:46;;;;;;;7.80;6.50;;;14.70;39.10;;;;;;5092065;28;20159;-31
2022/05/03 02:00:12;;;;;;;10.15;6.80;;;14.60;38.70;;;;;;5091991;28;20678;-32
2022/05/03 02:02:43;;;;;;;9.73;7.53;;;14.60;38.60;;;;;;5091930;28;20176;-31
2022/05/03 02:05:20;;;;;;;9.43;6.05;;;14.60;38.70;;;;;;5091944;28;20449;-31
2022/05/03 02:07:56;;;;;;;10.27;7.13;;;14.50;39.20;;;;;;5092057;28;20216;-31
2022/05/03 02:10:55;;;;;;;7.35;6.25;;;14.40;39.30;;;;;;5091898;28;20650;-31
2022/05/03 02:16:49;;;;;;;7.13;5.55;;;14.30;39.50;;;;;;5091951;28;20682;-31
2022/05/03 02:19:39;;;;;;;8.02;5.72;;;14.30;39.20;;;;;;5091996;28;20535;-31
2022/05/03 02:22:23;;;;;;;5.57;4.97;;;14.20;39.50;;;;;;5091568;28;20164;-31
2022/05/03 02:25:09;;;;;;;9.45;5.55;;;14.20;39.30;;;;;;5091858;28;20244;-31
2022/05/03 02:27:42;;;;;;;8.75;6.15;;;14.20;39.40;;;;;;5091873;28;20300;-31
2022/05/03 02:30:08;;;;;;;8.85;5.97;;;14.20;39.00;;;;;;5091800;28;20536;-31
2022/05/03 02:32:49;;;;;;;9.18;6.07;;;14.30;39.00;;;;;;5091582;28;20164;-31
2022/05/03 02:35:21;;;;;;;7.82;5.63;;;14.20;39.10;;;;;;5091755;28;20190;-31
2022/05/03 02:37:48;;;;;;;8.15;5.35;;;14.20;39.00;;;;;;5091940;28;20198;-31
2022/05/03 02:40:18;;;;;;;8.93;5.55;;;14.20;38.90;;;;;;5091672;28;20635;-31
2022/05/03 02:42:45;;;;;;;7.38;6.40;;;14.20;39.00;;;;;;5091539;28;20180;-32
2022/05/03 02:45:12;;;;;;;9.48;6.00;;;14.10;39.60;;;;;;5091562;28;20204;-31
2022/05/03 02:47:56;;;;;;;8.95;5.90;;;14.10;39.80;;;;;;5091652;28;20524;-31
2022/05/03 02:50:30;;;;;;;7.95;6.30;;;14.10;39.70;;;;;;5091520;28;20164;-31
2022/05/03 02:53:07;;;;;;;7.63;5.75;;;14.10;39.80;;;;;;5091748;28;20168;-33
2022/05/03 02:55:49;;;;;;;8.98;6.65;;;14.10;39.70;;;;;;5091879;28;20187;-33
2022/05/03 02:58:42;;;;;;;7.82;6.35;;;14.00;39.50;;;;;;5091901;28;20176;-33
2022/05/03 03:04:23;;;;;;;7.03;5.60;;;14.00;39.30;;;;;;5095511;28;20614;-33
2022/05/03 03:06:54;;;;;;;6.60;4.82;;;14.00;39.50;;;;;;5095371;28;20195;-33
2022/05/03 03:09:40;;;;;;;8.77;5.40;;;13.90;39.50;;;;;;5095509;28;20539;-33
2022/05/03 03:12:44;;;;;;;6.22;4.85;;;13.90;39.50;;;;;;5084066;28;20339;-33
2022/05/03 03:15:14;;;;;;;10.73;7.10;;;13.90;39.30;;;;;;5095167;28;20226;-33
2022/05/03 03:17:48;;;;;;;15.88;6.78;;;13.80;39.40;;;;;;5095144;28;20528;-33
2022/05/03 03:20:19;;;;;;;6.03;5.03;;;13.70;39.60;;;;;;5094852;28;20175;-33
2022/05/03 03:22:48;;;;;;;9.90;5.90;;;13.60;39.80;;;;;;5094655;28;20180;-33
2022/05/03 03:25:18;;;;;;;7.13;5.45;;;13.60;40.20;;;;;;5094710;28;20192;-33
2022/05/03 03:27:46;;;;;;;5.80;5.20;;;13.60;39.50;;;;;;5110620;28;20168;-33
2022/05/03 03:30:13;;;;;;;6.20;5.60;;;13.60;39.70;;;;;;5107089;28;20168;-33
2022/05/03 03:32:50;;;;;;;8.73;6.00;;;13.60;39.10;;;;;;5094489;28;20179;-33
2022/05/03 03:35:16;;;;;;;10.13;5.50;;;13.60;39.10;;;;;;5094471;28;20204;-33
2022/05/03 03:37:44;;;;;;;7.32;5.65;;;13.50;39.30;;;;;;5094480;28;20172;-33
2022/05/03 03:40:11;;;;;;;6.50;5.50;;;13.50;39.40;;;;;;5094364;28;20251;-33
2022/05/03 03:42:37;;;;;;;7.22;5.78;;;13.40;39.80;;;;;;5094212;28;20172;-33
2022/05/03 03:45:08;;;;;;;7.30;5.30;;;13.40;39.80;;;;;;5094170;28;20203;-33
2022/05/03 03:47:38;;;;;;;9.13;5.50;;;13.40;39.50;;;;;;5094221;28;20536;-33
2022/05/03 03:50:05;;;;;;;6.03;5.20;;;13.40;39.20;;;;;;5094369;28;20172;-33
2022/05/03 03:52:32;;;;;;;8.10;5.20;;;13.40;39.40;;;;;;5094005;28;20174;-33
2022/05/03 03:54:58;;;;;;;8.63;5.85;;;13.40;39.60;;;;;;5094112;28;20195;-33
2022/05/03 03:57:24;;;;;;;11.10;5.88;;;13.40;39.70;;;;;;5094165;28;20566;-33
2022/05/03 03:59:51;;;;;;;7.70;5.85;;;13.40;39.90;;;;;;5094011;28;20233;-33
2022/05/03 04:02:17;;;;;;;6.35;4.93;;;13.40;40.10;;;;;;5093801;28;20188;-33
2022/05/03 04:04:44;;;;;;;19.10;5.28;;;13.40;40.10;;;;;;5093724;28;20195;-33
2022/05/03 04:07:11;;;;;;;8.52;5.53;;;13.40;40.50;;;;;;5093911;28;20172;-33
2022/05/03 04:09:37;;;;;;;6.70;6.00;;;13.40;40.50;;;;;;5093887;28;20251;-33
2022/05/03 04:12:04;;;;;;;7.37;5.73;;;13.40;40.40;;;;;;5093187;28;20644;-33
2022/05/03 04:14:30;;;;;;;6.18;4.63;;;13.40;40.50;;;;;;5093913;28;20442;-33
2022/05/03 04:16:57;;;;;;;8.13;5.78;;;13.50;40.80;;;;;;5093865;28;20204;-33
2022/05/03 04:19:23;;;;;;;6.90;5.75;;;13.50;40.70;;;;;;5093884;28;20176;-33
2022/05/03 04:21:50;;;;;;;7.85;5.88;;;13.50;40.70;;;;;;5093405;28;20513;-33
2022/05/03 04:24:16;;;;;;;6.28;5.40;;;13.60;40.80;;;;;;5093528;28;20199;-33
2022/05/03 04:26:42;;;;;;;9.55;5.85;;;13.60;40.20;;;;;;5093371;28;20242;-33
2022/05/03 04:29:08;;;;;;;11.68;6.05;;;13.70;40.10;;;;;;5093860;28;20208;-33
2022/05/03 04:31:35;;;;;;;7.13;5.67;;;13.70;39.90;;;;;;5093167;28;20644;-33
2022/05/03 04:34:03;;;;;;;11.70;5.60;;;13.70;40.00;;;;;;5093361;28;20183;-33
2022/05/03 04:36:33;;;;;;;12.27;6.43;;;13.70;40.00;;;;;;5093483;28;20175;-33
2022/05/03 04:38:59;;;;;;;12.63;5.75;;;13.80;40.40;;;;;;5093187;28;20679;-33
2022/05/03 04:41:25;;;;;;;7.13;6.05;;;13.80;40.80;;;;;;5093190;28;20186;-33
2022/05/03 04:43:51;;;;;;;7.50;5.43;;;13.80;40.40;;;;;;5092970;28;20168;-33
2022/05/03 04:46:17;;;;;;;10.13;5.60;;;14.00;40.40;;;;;;5093420;28;20203;-33
2022/05/03 04:48:43;;;;;;;20.35;6.38;;;14.00;40.50;;;;;;5093154;28;20488;-34
2022/05/03 04:51:23;;;;;;;9.33;7.30;;;14.10;40.60;;;;;;5092926;28;20381;-35
2022/05/03 04:53:50;;;;;;;6.55;5.45;;;14.20;40.60;;;;;;5093260;28;20162;-35
2022/05/03 04:56:17;;;;;;;12.30;7.20;;;14.30;40.30;;;;;;5092767;28;20168;-35
2022/05/03 04:58:42;;;;;;;10.82;5.43;;;14.40;40.50;;;;;;5093151;28;20191;-35
2022/05/03 05:01:08;;;;;;;10.60;7.37;;;14.50;40.80;;;;;;5092666;28;20532;-34
2022/05/03 05:03:34;;;;;;;5.90;5.30;;;14.70;40.60;;;;;;5092744;28;20168;-34
2022/05/03 05:05:59;;;;;;;12.53;6.43;;;15.40;41.10;;;;;;5092955;28;20271;-35
2022/05/03 05:08:25;;;;;;;9.30;5.87;;;14.90;40.80;;;;;;5092670;28;20168;-35
2022/05/03 05:10:51;;;;;;;10.57;6.47;;;15.00;40.90;;;;;;5092317;28;20214;-34
2022/05/03 05:13:16;;;;;;;8.80;5.27;;;15.00;40.60;;;;;;5092631;28;20160;-35
2022/05/03 05:15:42;;;;;;;6.73;5.50;;;15.00;40.20;;;;;;5092404;28;20211;-35
2022/05/03 05:18:08;;;;;;;18.83;6.60;;;15.10;40.20;;;;;;5093039;28;20168;-34
2022/05/03 05:20:34;;;;;;;8.27;5.45;;;15.20;40.20;;;;;;5092450;28;20225;-34
2022/05/03 05:23:00;;;;;;;8.30;6.37;;;15.30;40.40;;;;;;5091621;28;20175;-34
2022/05/03 05:25:25;;;;;;;6.60;5.93;;;15.50;40.20;;;;;;5092231;28;20192;-35
2022/05/03 05:27:51;;;;;;;12.03;6.30;;;15.60;40.10;;;;;;5092521;28;20171;-35
2022/05/03 05:30:17;;;;;;;7.93;7.10;;;15.60;39.80;;;;;;5090991;28;20258;-34
2022/05/03 05:32:42;;;;;;;7.03;6.30;;;15.80;39.80;;;;;;5092334;28;20160;-35
2022/05/03 05:35:08;;;;;;;10.80;7.37;;;15.90;39.70;;;;;;5092226;28;20184;-32
2022/05/03 05:37:34;;;;;;;6.77;6.10;;;16.10;39.60;;;;;;5092284;28;20172;-32
2022/05/03 05:40:00;;;;;;;12.23;6.40;;;16.20;39.40;;;;;;5092121;28;20410;-32
2022/05/03 05:42:26;;;;;;;6.93;5.23;;;16.30;39.40;;;;;;5091906;28;20229;-32
2022/05/03 05:44:52;;;;;;;10.60;7.60;;;16.50;39.30;;;;;;5091922;28;20738;-32
2022/05/03 05:47:18;;;;;;;11.43;6.47;;;16.60;39.20;;;;;;5092164;28;20196;-33
2022/05/03 05:49:44;;;;;;;8.80;6.07;;;16.70;39.10;;;;;;5092438;28;20202;-33
2022/05/03 05:54:54;;;;;;;11.32;6.97;;;16.80;38.70;;;;;;5092130;28;20606;-33
2022/05/03 05:57:20;;;;;;;8.00;7.17;;;16.90;38.80;;;;;;5092282;28;20627;-33
2022/05/03 05:59:47;;;;;;;11.27;8.83;;;16.90;38.60;;;;;;5092069;28;20222;-33
2022/05/03 06:02:14;;;;;;;8.98;6.47;;;16.90;38.70;;;;;;5091801;28;20402;-33
2022/05/03 06:04:40;;;;;;;8.05;6.78;;;16.90;38.60;;;;;;5091867;28;20629;-33
2022/05/03 06:07:06;;;;;;;14.80;7.50;;;17.00;38.80;;;;;;5091997;28;20192;-33
2022/05/03 06:09:33;;;;;;;14.60;7.87;;;17.10;38.90;;;;;;5093069;28;20226;-33
2022/05/03 06:11:58;;;;;;;11.85;7.30;;;17.20;38.80;;;;;;5092307;28;20606;-33
2022/05/03 06:14:24;;;;;;;11.03;8.10;;;17.50;38.90;;;;;;5091755;28;20208;-33
2022/05/03 06:16:57;;;;;;;10.63;6.77;;;17.60;38.50;;;;;;5092446;28;20254;-33
2022/05/03 06:19:24;;;;;;;8.93;8.02;;;17.80;38.40;;;;;;5091992;28;20168;-33
2022/05/03 06:21:50;;;;;;;8.20;6.75;;;17.90;38.30;;;;;;5091386;28;20172;-33
2022/05/03 06:24:16;;;;;;;9.43;7.55;;;18.10;38.10;;;;;;5091898;28;20275;-34
2022/05/03 06:26:42;;;;;;;12.27;7.45;;;18.20;37.90;;;;;;5091709;28;20291;-33
2022/05/03 06:29:09;;;;;;;10.20;7.67;;;18.20;37.30;;;;;;5091850;28;20247;-33
2022/05/03 06:31:42;;;;;;;9.45;7.78;;;18.20;37.30;;;;;;5091509;28;20822;-33
2022/05/03 06:34:08;;;;;;;7.85;7.03;;;18.30;37.50;;;;;;5092074;28;20194;-33
2022/05/03 06:36:35;;;;;;;13.90;7.18;;;18.50;37.70;;;;;;5095603;28;20222;-33
2022/05/03 06:39:09;;;;;;;13.25;7.72;;;18.60;37.50;;;;;;5095688;28;20184;-33
2022/05/03 06:41:35;;;;;;;11.90;7.68;;;18.80;37.50;;;;;;5095333;28;20198;-34
2022/05/03 06:44:01;;;;;;;7.03;6.27;;;18.90;37.10;;;;;;5095327;28;20683;-34
2022/05/03 06:46:27;;;;;;;7.17;6.43;;;19.00;36.70;;;;;;5095313;28;20192;-33
2022/05/03 06:48:53;;;;;;;9.65;7.75;;;19.10;36.70;;;;;;5095276;28;20172;-33
2022/05/03 06:51:19;;;;;;;10.47;7.10;;;19.20;36.80;;;;;;5095013;28;20642;-34
2022/05/03 06:53:45;;;;;;;17.00;8.57;;;19.40;36.70;;;;;;5095183;28;20408;-34
2022/05/03 06:56:11;;;;;;;15.80;7.88;;;19.50;36.60;;;;;;5095215;28;20406;-34
2022/05/03 06:58:37;;;;;;;8.47;6.10;;;19.60;36.30;;;;;;5095199;28;20505;-34
2022/05/03 07:01:13;;;;;;;10.93;7.00;;;19.80;36.20;;;;;;5094997;28;20402;-32
2022/05/03 07:03:40;;;;;;;9.40;7.43;;;19.90;36.00;;;;;;5095052;28;20666;-32
2022/05/03 07:06:07;;;;;;;8.55;7.07;;;20.00;35.00;;;;;;5095184;28;20261;-32
2022/05/03 07:08:33;;;;;;;8.38;6.80;;;20.00;34.30;;;;;;5095073;28;20171;-32
2022/05/03 07:10:59;;;;;;;9.27;7.13;;;20.00;34.70;;;;;;5094742;28;20164;-32
2022/05/03 07:13:25;;;;;;;7.28;6.53;;;20.00;35.20;;;;;;5095019;28;20214;-32
2022/05/03 07:15:52;;;;;;;8.32;6.43;;;20.10;35.30;;;;;;5094625;28;20214;-32
2022/05/03 07:23:47;;;;;;;7.93;5.18;;;20.50;34.10;;;;;;5094709;28;20222;-32
2022/05/03 07:26:13;;;;;;;10.90;7.50;;;20.70;34.60;;;;;;5094460;28;20199;-32
2022/05/03 07:28:39;;;;;;;8.50;6.90;;;20.90;33.80;;;;;;5094708;28;20191;-32
2022/05/03 07:31:05;;;;;;;9.87;6.47;;;21.00;32.80;;;;;;5094626;28;20905;-32
2022/05/03 07:33:32;;;;;;;6.80;5.23;;;21.00;32.40;;;;;;5094693;28;20168;-32
2022/05/03 07:35:57;;;;;;;7.10;6.10;;;21.10;32.80;;;;;;5094515;28;20195;-33
2022/05/03 07:38:23;;;;;;;6.47;5.10;;;21.30;32.10;;;;;;5095082;28;20176;-33
2022/05/03 07:40:49;;;;;;;7.13;5.00;;;21.30;30.20;;;;;;5094254;28;20168;-33
2022/05/03 07:43:15;;;;;;;9.67;6.40;;;21.20;30.00;;;;;;5094613;28;20233;-33
2022/05/03 07:45:40;;;;;;;8.23;5.57;;;21.30;30.10;;;;;;5093742;28;20458;-33
2022/05/03 07:48:06;;;;;;;7.20;5.67;;;21.40;31.10;;;;;;5093989;28;20402;-33
2022/05/03 07:50:32;;;;;;;7.43;5.37;;;21.60;30.60;;;;;;5094008;28;20164;-33
2022/05/03 07:52:58;;;;;;;6.45;4.97;;;21.70;30.70;;;;;;5094192;28;20233;-33
2022/05/03 07:55:24;;;;;;;5.73;4.53;;;21.90;31.00;;;;;;5093987;28;20212;-33
2022/05/03 07:57:49;;;;;;;7.50;4.93;;;22.10;27.30;;;;;;5094066;28;20673;-33
2022/05/03 08:00:15;;;;;;;8.13;4.87;;;22.10;29.70;;;;;;5093993;28;20176;-33
2022/05/03 08:02:41;;;;;;;9.60;4.80;;;22.20;29.10;;;;;;5093914;28;20176;-33
2022/05/03 08:05:08;;;;;;;7.00;5.03;;;22.30;29.30;;;;;;5093868;28;20218;-33
2022/05/03 08:07:35;;;;;;;7.30;5.00;;;22.40;29.20;;;;;;5094128;28;20164;-35
2022/05/03 08:10:01;;;;;;;7.70;5.47;;;22.60;27.70;;;;;;5094152;28;20398;-35
2022/05/03 08:12:27;;;;;;;7.30;5.40;;;22.70;29.20;;;;;;5093841;28;20436;-35
2022/05/03 08:14:53;;;;;;;6.40;4.50;;;22.80;29.10;;;;;;5093763;28;20477;-35
2022/05/03 08:17:19;;;;;;;6.23;5.07;;;22.80;27.30;;;;;;5093916;28;20175;-35
2022/05/03 08:19:45;;;;;;;5.60;4.20;;;22.80;27.60;;;;;;5093904;28;20398;-35
2022/05/03 08:22:11;;;;;;;6.17;5.40;;;22.80;29.20;;;;;;5093645;28;20430;-35
2022/05/03 08:24:37;;;;;;;5.97;4.40;;;22.90;28.10;;;;;;5093635;28;20422;-34
2022/05/03 08:27:04;;;;;;;8.07;5.60;;;22.90;27.80;;;;;;5093633;28;20454;-34
2022/05/03 08:29:31;;;;;;;6.07;4.70;;;23.00;28.20;;;;;;5093848;28;20538;-33
2022/05/03 08:31:58;;;;;;;7.43;4.50;;;23.10;26.30;;;;;;5093112;28;20394;-33
2022/05/03 08:34:24;;;;;;;3.93;3.27;;;23.10;27.60;;;;;;5093301;28;20428;-33
2022/05/03 08:42:18;;;;;;;5.40;4.33;;;23.70;28.20;;;;;;5093072;28;20401;-33
2022/05/03 08:44:44;;;;;;;5.90;3.43;;;23.80;27.80;;;;;;5092765;28;20418;-33
2022/05/03 08:47:10;;;;;;;4.57;4.07;;;24.00;28.20;;;;;;5093134;28;20172;-33
2022/05/03 08:50:01;;;;;;;5.73;3.93;;;24.20;28.50;;;;;;5092975;28;20771;-33
2022/05/03 08:52:29;;;;;;;4.50;3.60;;;24.40;26.70;;;;;;5093025;28;20402;-33
2022/05/03 08:55:01;;;;;;;3.83;3.43;;;24.50;26.20;;;;;;5093059;28;20426;-33
2022/05/03 08:57:28;;;;;;;6.93;4.53;;;24.60;26.80;;;;;;5092820;28;20894;-33
2022/05/03 08:59:54;;;;;;;7.03;4.50;;;24.70;26.30;;;;;;5092904;28;20946;-34
2022/05/03 09:02:20;;;;;;;5.33;4.50;;;24.80;27.70;;;;;;5092897;28;20867;-34
2022/05/03 09:04:47;;;;;;;10.63;4.30;;;24.90;28.00;;;;;;5092692;28;20887;-34
2022/05/03 09:07:23;;;;;;;4.70;3.97;;;25.00;25.40;;;;;;5092782;28;20627;-34
2022/05/03 09:09:51;;;;;;;7.53;3.87;;;25.20;27.60;;;;;;5092766;28;20487;-34
2022/05/03 09:12:31;;;;;;;5.40;4.20;;;25.30;27.50;;;;;;5092824;28;20407;-34
2022/05/03 09:15:01;;;;;;;4.57;3.20;;;25.50;27.00;;;;;;5092626;28;20453;-34
2022/05/03 09:17:43;;;;;;;4.60;3.50;;;25.60;26.90;;;;;;5092597;28;20810;-34
2022/05/03 09:25:54;;;;;;;3.30;3.00;;;26.00;25.30;;;;;;5092405;28;20460;-34
2022/05/03 09:28:23;;;;;;;4.60;4.10;;;26.00;26.20;;;;;;5092625;28;20438;-34
2022/05/03 09:30:51;;;;;;;5.33;4.20;;;26.10;25.90;;;;;;5092353;28;20406;-34
2022/05/03 09:33:23;;;;;;;5.43;4.93;;;26.20;26.00;;;;;;5092362;28;20406;-34
2022/05/03 09:35:50;;;;;;;5.83;4.53;;;26.30;26.40;;;;;;5092540;28;20434;-34
2022/05/03 09:38:16;;;;;;;6.60;4.70;;;26.40;25.80;;;;;;5092590;28;20459;-34
2022/05/03 09:40:45;;;;;;;6.20;4.80;;;26.50;25.70;;;;;;5092125;28;20401;-34
2022/05/03 09:43:12;;;;;;;4.77;4.27;;;26.60;25.70;;;;;;5092328;28;20447;-33
2022/05/03 09:45:38;;;;;;;4.50;3.83;;;26.60;24.90;;;;;;5092493;28;20541;-33
2022/05/03 09:48:05;;;;;;;7.00;5.30;;;26.70;24.60;;;;;;5092165;28;20410;-33
2022/05/03 09:50:33;;;;;;;4.83;3.77;;;26.80;24.80;;;;;;5091999;28;20529;-33
2022/05/03 09:53:12;;;;;;;6.43;4.63;;;26.80;23.90;;;;;;5090837;28;20857;-33
2022/05/03 09:55:40;;;;;;;4.57;4.13;;;26.90;23.60;;;;;;5092239;28;20497;-33
2022/05/03 09:58:10;;;;;;;6.30;4.83;;;26.80;23.70;;;;;;5092346;28;20410;-33
2022/05/03 10:00:39;;;;;;;5.30;3.80;;;26.80;24.30;;;;;;5091718;28;20417;-33
2022/05/03 10:03:09;;;;;;;6.97;4.57;;;26.90;24.80;;;;;;5092030;28;20414;-33
2022/05/03 10:05:36;;;;;;;6.03;4.40;;;27.00;25.50;;;;;;5092025;28;20960;-34
2022/05/03 10:08:03;;;;;;;4.47;4.00;;;27.10;25.60;;;;;;5092519;28;20401;-33
2022/05/03 10:10:29;;;;;;;6.80;4.27;;;27.30;25.80;;;;;;5094647;28;20410;-33
2022/05/03 10:12:55;;;;;;;4.90;3.67;;;27.40;25.30;;;;;;5096000;28;20785;-34
2022/05/03 10:21:16;;;;;;;10.53;5.40;;;27.60;24.30;;;;;;5095960;28;20769;-34
2022/05/03 10:24:03;;;;;;;7.70;3.77;;;27.40;22.60;;;;;;5096150;28;20416;-35
2022/05/03 10:27:03;;;;;;;9.70;4.03;;;27.40;23.60;;;;;;5095954;28;20511;-35
2022/05/03 10:29:32;;;;;;;6.20;4.30;;;27.40;24.30;;;;;;5095723;28;20409;-33
2022/05/03 10:32:03;;;;;;;5.23;4.30;;;27.50;24.30;;;;;;5095815;28;20402;-33
2022/05/03 10:34:44;;;;;;;7.57;3.47;;;27.60;24.00;;;;;;5095661;28;20426;-33
2022/05/03 10:37:33;;;;;;;6.83;4.70;;;27.70;24.20;;;;;;5095829;28;20489;-34
2022/05/03 10:40:12;;;;;;;6.33;4.60;;;27.80;23.30;;;;;;5095306;28;20438;-34
2022/05/03 10:42:39;;;;;;;13.17;5.10;;;27.90;23.40;;;;;;5095367;28;20401;-33
2022/05/03 10:45:13;;;;;;;6.70;4.20;;;27.90;23.00;;;;;;5095317;28;20933;-34
2022/05/03 10:47:48;;;;;;;5.67;4.73;;;28.00;23.60;;;;;;5095526;28;20905;-33
2022/05/03 10:50:17;;;;;;;5.90;4.30;;;28.10;23.50;;;;;;5095418;28;20394;-33
2022/05/03 10:53:05;;;;;;;7.07;4.60;;;28.10;23.30;;;;;;5095193;28;20398;-34
2022/05/03 10:55:37;;;;;;;5.30;3.40;;;28.10;22.70;;;;;;5085466;28;20444;-34
2022/05/03 10:58:18;;;;;;;5.40;4.20;;;28.20;23.20;;;;;;5095358;28;20489;-34
2022/05/03 11:01:23;;;;;;;8.13;5.10;;;28.30;23.20;;;;;;5094963;28;20424;-34
2022/05/03 11:03:52;;;;;;;6.57;5.93;;;28.40;22.90;;;;;;5095279;28;20402;-34
2022/05/03 11:06:26;;;;;;;6.27;3.60;;;28.40;22.40;;;;;;5095105;28;20534;-33
2022/05/03 11:11:44;;;;;;;4.60;3.70;;;28.40;21.90;;;;;;5094816;28;20721;-34
2022/05/03 11:14:24;;;;;;;5.43;4.60;;;28.50;22.70;;;;;;5094732;28;20470;-34
2022/05/03 11:17:05;;;;;;;5.77;5.07;;;28.50;21.20;;;;;;5094961;28;20402;-35
2022/05/03 11:19:35;;;;;;;5.90;4.27;;;28.40;19.90;;;;;;5094709;28;20436;-34
2022/05/03 11:22:08;;;;;;;6.80;3.83;;;28.10;20.90;;;;;;5093522;28;20885;-34
2022/05/03 11:24:33;;;;;;;6.80;4.20;;;28.20;22.00;;;;;;5094782;28;20421;-33
2022/05/03 11:27:05;;;;;;;4.30;3.50;;;28.40;22.80;;;;;;5094704;28;20458;-34
2022/05/03 11:29:55;;;;;;;6.03;4.30;;;28.50;23.10;;;;;;5094704;28;20182;-34
2022/05/03 11:32:37;;;;;;;4.87;3.53;;;28.70;22.20;;;;;;5085364;28;20447;-34
2022/05/03 11:35:16;;;;;;;6.13;4.10;;;28.90;22.20;;;;;;5094325;28;20410;-34
2022/05/03 11:37:52;;;;;;;4.83;4.33;;;28.80;21.50;;;;;;5095256;28;20476;-34
2022/05/03 11:40:20;;;;;;;5.17;3.97;;;28.70;21.10;;;;;;5094634;28;20397;-35
2022/05/03 11:42:47;;;;;;;5.43;3.83;;;28.40;20.70;;;;;;5094311;28;20398;-34
2022/05/03 11:45:14;;;;;;;4.70;4.20;;;28.50;21.50;;;;;;5094472;28;20458;-34
2022/05/03 11:47:47;;;;;;;4.30;3.53;;;28.50;21.70;;;;;;5094274;28;20402;-34
2022/05/03 11:55:58;;;;;;;9.47;3.93;;;28.50;21.70;;;;;;5094356;28;20485;-34
2022/05/03 11:56:00;;;;;;;4.40;4.00;;;28.50;20.30;;;;;;5094462;28;20422;-34
2022/05/03 11:58:28;;;;;;;7.20;4.27;;;28.60;21.50;;;;;;5094080;28;20420;-35
2022/05/03 12:00:54;;;;;;;5.33;4.53;;;28.70;21.90;;;;;;5093914;28;20406;-34
2022/05/03 12:03:20;;;;;;;4.13;3.73;;;28.90;21.30;;;;;;5093833;28;20398;-35
2022/05/03 12:06:04;;;;;;;6.00;3.90;;;29.10;21.50;;;;;;5094019;28;20563;-35
2022/05/03 12:08:31;;;;;;;6.40;4.13;;;29.30;22.00;;;;;;5094118;28;20170;-35
2022/05/03 12:10:57;;;;;;;5.50;4.27;;;29.40;22.00;;;;;;5093656;28;20402;-35
2022/05/03 12:13:22;;;;;;;6.90;3.97;;;29.30;20.40;;;;;;5093774;28;20445;-35
2022/05/03 12:15:57;;;;;;;4.70;3.90;;;29.10;20.80;;;;;;5093750;28;20973;-35
2022/05/03 12:18:37;;;;;;;4.23;3.73;;;29.00;21.20;;;;;;5093702;28;20175;-35
2022/05/03 12:21:10;;;;;;;5.00;4.10;;;28.90;20.60;;;;;;5093542;28;20459;-35
2022/05/03 12:23:36;;;;;;;4.97;3.70;;;28.60;21.10;;;;;;5094031;28;20414;-35
2022/05/03 12:26:27;;;;;;;4.73;3.77;;;28.40;20.90;;;;;;5093505;28;20449;-35
2022/05/03 12:28:56;;;;;;;4.20;3.33;;;28.20;21.20;;;;;;5093470;28;20443;-35
2022/05/03 12:31:27;;;;;;;4.63;3.33;;;28.30;22.00;;;;;;5093114;28;20405;-35
2022/05/03 12:33:54;;;;;;;7.07;5.17;;;28.30;21.80;;;;;;5093086;28;20398;-34
2022/05/03 12:36:34;;;;;;;4.10;3.40;;;28.40;18.60;;;;;;5093406;28;20763;-35
2022/05/03 12:39:16;;;;;;;3.60;3.13;;;28.60;21.00;;;;;;5093238;28;20429;-35
2022/05/03 12:41:44;;;;;;;5.40;4.13;;;28.80;20.90;;;;;;5091506;28;20475;-34
2022/05/03 12:44:12;;;;;;;4.63;3.83;;;29.00;20.50;;;;;;5092914;28;20425;-35
2022/05/03 12:46:38;;;;;;;4.47;3.40;;;28.70;19.90;;;;;;5093050;28;20444;-35
2022/05/03 12:49:12;;;;;;;3.80;3.30;;;28.80;21.70;;;;;;5092966;28;20913;-34
2022/05/03 12:51:43;;;;;;;5.63;3.60;;;29.00;21.40;;;;;;5092917;28;20394;-33
2022/05/03 12:54:10;;;;;;;4.00;3.20;;;29.10;21.30;;;;;;5091662;28;20449;-34
2022/05/03 12:59:22;;;;;;;5.20;3.30;;;29.40;20.70;;;;;;5093239;28;20409;-34
2022/05/03 13:01:50;;;;;;;4.30;2.63;;;29.40;20.80;;;;;;5093090;28;20405;-34
2022/05/03 13:04:19;;;;;;;3.93;3.30;;;29.60;20.30;;;;;;5092895;28;20501;-35
2022/05/03 13:06:46;;;;;;;4.63;3.10;;;29.70;20.70;;;;;;5092994;28;20488;-34
2022/05/03 13:09:13;;;;;;;3.40;2.93;;;29.80;20.60;;;;;;5092617;28;20398;-34
2022/05/03 13:11:39;;;;;;;3.87;2.70;;;30.00;21.20;;;;;;5092460;28;20489;-34
2022/05/03 13:14:06;;;;;;;5.37;4.23;;;30.20;21.00;;;;;;5092983;28;20517;-35
2022/05/03 13:16:32;;;;;;;4.60;3.40;;;30.20;19.30;;;;;;5092301;28;20501;-35
2022/05/03 13:18:58;;;;;;;4.20;3.17;;;30.20;21.30;;;;;;5092585;28;20481;-35
2022/05/03 13:21:23;;;;;;;3.33;3.03;;;30.20;20.50;;;;;;5092392;28;20448;-35
2022/05/03 13:23:50;;;;;;;5.13;3.73;;;30.30;20.60;;;;;;5092452;28;20164;-34
2022/05/03 13:26:16;;;;;;;3.87;3.47;;;30.40;20.90;;;;;;5092542;28;20262;-34
2022/05/03 13:28:42;;;;;;;7.23;3.73;;;30.40;19.60;;;;;;5092436;28;20898;-35
2022/05/03 13:31:08;;;;;;;4.90;3.47;;;30.30;19.80;;;;;;5092366;28;20434;-35
2022/05/03 13:33:34;;;;;;;4.50;3.00;;;30.30;19.90;;;;;;5092557;28;20941;-35
2022/05/03 13:41:28;;;;;;;4.23;3.60;;;30.40;20.20;;;;;;5091967;28;20405;-34
2022/05/03 13:43:54;;;;;;;4.43;3.13;;;30.40;19.50;;;;;;5091584;28;20433;-35
2022/05/03 13:46:19;;;;;;;5.27;3.43;;;30.20;18.20;;;;;;5092052;28;20460;-34
2022/05/03 13:48:46;;;;;;;3.57;3.27;;;30.20;20.30;;;;;;5093722;28;20164;-34
2022/05/03 13:51:12;;;;;;;5.27;4.03;;;30.30;20.30;;;;;;5090944;28;20180;-34
2022/05/03 13:53:38;;;;;;;4.83;3.17;;;30.40;20.00;;;;;;5092101;28;20402;-34